Time;durP1;ratioP1;P1;durP2;ratioP2;P2;SDS_P1;SDS_P2;PMS_P1;PMS_P2;Temp;Humidity;BMP_temperature;BMP_pressure;BME280_temperature;BME280_humidity;BME280_pressure;Samples;Min_cycle;Max_cycle;Signal;HPM_P1;HPM_P2
2022/05/17 00:01:24;;;;;;;9.70;4.77;;;;;;;;;;5021083;28;20772;-71
2022/05/17 00:03:49;;;;;;;18.52;5.90;;;;;;;;;;5019736;28;20328;-71
2022/05/17 00:06:14;;;;;;;15.15;5.55;;;;;;;;;;5012706;28;20021;-71
2022/05/17 00:08:39;;;;;;;14.30;6.05;;;;;;;;;;5020256;28;20018;-71
2022/05/17 00:11:06;;;;;;;11.60;5.30;;;;;;;;;;5018771;28;20038;-71
2022/05/17 00:13:31;;;;;;;14.60;5.72;;;;;;;;;;5018944;28;20083;-71
2022/05/17 00:15:58;;;;;;;15.57;5.97;;;;;;;;;;5017819;28;20057;-71
2022/05/17 00:18:23;;;;;;;17.67;5.53;;;;;;;;;;5016339;28;20029;-71
2022/05/17 00:20:49;;;;;;;13.20;5.40;;;;;;;;;;5017885;28;20144;-72
2022/05/17 00:23:17;;;;;;;12.53;5.10;;;;;;;;;;5020680;28;20028;-72
2022/05/17 00:25:44;;;;;;;12.48;5.47;;;;;;;;;;5016593;28;20282;-73
2022/05/17 00:28:09;;;;;;;13.90;6.18;;;;;;;;;;5019017;28;20791;-73
2022/05/17 00:30:34;;;;;;;12.93;5.50;;;;;;;;;;5022536;28;20029;-72
2022/05/17 00:33:00;;;;;;;10.87;5.33;;;;;;;;;;5017999;28;20085;-73
2022/05/17 00:35:25;;;;;;;14.55;5.43;;;;;;;;;;5023180;28;20269;-73
2022/05/17 00:37:50;;;;;;;15.25;5.68;;;;;;;;;;5025590;28;20036;-73
2022/05/17 00:40:16;;;;;;;14.60;6.25;;;;;;;;;;5022434;28;20080;-72
2022/05/17 00:42:41;;;;;;;14.82;5.70;;;;;;;;;;5023161;28;20041;-73
2022/05/17 00:45:09;;;;;;;12.52;5.65;;;;;;;;;;5022035;28;20463;-73
2022/05/17 00:47:53;;;;;;;15.60;5.55;;;;;;;;;;5017936;28;20472;-72
2022/05/17 00:50:23;;;;;;;20.10;7.60;;;;;;;;;;5021574;28;20070;-72
2022/05/17 00:52:51;;;;;;;16.60;5.00;;;;;;;;;;5020777;28;20030;-72
2022/05/17 00:55:31;;;;;;;16.58;5.45;;;;;;;;;;5020580;28;20568;-72
2022/05/17 00:58:00;;;;;;;16.73;5.55;;;;;;;;;;5022785;28;20029;-73
2022/05/17 01:00:27;;;;;;;18.88;5.80;;;;;;;;;;5020659;28;20029;-72
2022/05/17 01:02:54;;;;;;;9.98;6.15;;;;;;;;;;5026067;28;20026;-72
2022/05/17 01:05:20;;;;;;;14.40;6.53;;;;;;;;;;5021265;28;20042;-72
2022/05/17 01:07:49;;;;;;;14.00;5.75;;;;;;;;;;5020819;28;20068;-72
2022/05/17 01:10:15;;;;;;;14.98;5.80;;;;;;;;;;5025774;28;20030;-72
2022/05/17 01:12:40;;;;;;;18.13;6.50;;;;;;;;;;5019101;28;20144;-72
2022/05/17 01:15:09;;;;;;;17.98;6.50;;;;;;;;;;5026036;28;20420;-72
2022/05/17 01:17:36;;;;;;;13.90;6.32;;;;;;;;;;5016431;28;20130;-72
2022/05/17 01:20:07;;;;;;;15.40;6.93;;;;;;;;;;5022340;28;20090;-73
2022/05/17 01:22:32;;;;;;;12.30;5.85;;;;;;;;;;5018061;28;20101;-72
2022/05/17 01:24:58;;;;;;;13.30;6.35;;;;;;;;;;5020815;28;20022;-72
2022/05/17 01:27:28;;;;;;;11.67;5.43;;;;;;;;;;5022927;28;20031;-72
2022/05/17 01:29:54;;;;;;;19.20;6.20;;;;;;;;;;5021041;28;20275;-72
2022/05/17 01:32:20;;;;;;;13.65;6.15;;;;;;;;;;5020349;28;20359;-72
2022/05/17 01:34:45;;;;;;;14.60;5.80;;;;;;;;;;5017585;28;20021;-72
2022/05/17 01:37:11;;;;;;;13.15;6.20;;;;;;;;;;5022519;28;20277;-72
2022/05/17 01:39:36;;;;;;;17.63;6.85;;;;;;;;;;5021034;28;20037;-72
2022/05/17 01:42:01;;;;;;;10.33;6.93;;;;;;;;;;5020200;28;20030;-72
2022/05/17 01:44:26;;;;;;;15.57;7.13;;;;;;;;;;5016153;28;20520;-72
2022/05/17 01:46:52;;;;;;;18.83;6.77;;;;;;;;;;5020550;28;20633;-72
2022/05/17 01:49:17;;;;;;;17.35;6.78;;;;;;;;;;5020690;28;20109;-72
2022/05/17 01:51:42;;;;;;;13.43;6.50;;;;;;;;;;5018493;28;20028;-72
2022/05/17 01:54:07;;;;;;;18.07;7.13;;;;;;;;;;5018937;28;20033;-72
2022/05/17 01:56:33;;;;;;;14.50;7.25;;;;;;;;;;5021062;28;20025;-72
2022/05/17 01:58:59;;;;;;;19.27;7.47;;;;;;;;;;5018681;28;20029;-72
2022/05/17 02:01:24;;;;;;;19.08;7.47;;;;;;;;;;5024731;28;20029;-72
2022/05/17 02:03:49;;;;;;;15.65;6.82;;;;;;;;;;5016828;28;20091;-72
2022/05/17 02:06:14;;;;;;;13.43;6.13;;;;;;;;;;5019660;28;20079;-72
2022/05/17 02:08:40;;;;;;;15.35;6.97;;;;;;;;;;5023215;28;20282;-73
2022/05/17 02:11:05;;;;;;;16.17;6.22;;;;;;;;;;5024644;28;20033;-73
2022/05/17 02:13:30;;;;;;;22.50;7.55;;;;;;;;;;5014574;28;20329;-72
2022/05/17 02:15:55;;;;;;;11.75;6.65;;;;;;;;;;5020067;28;20033;-72
2022/05/17 02:18:21;;;;;;;16.67;6.53;;;;;;;;;;5019678;28;20025;-72
2022/05/17 02:20:46;;;;;;;15.52;6.70;;;;;;;;;;5017577;28;20057;-72
2022/05/17 02:23:11;;;;;;;16.90;7.22;;;;;;;;;;5024395;28;20037;-73
2022/05/17 02:25:36;;;;;;;18.13;7.20;;;;;;;;;;5017808;28;20760;-72
2022/05/17 02:28:03;;;;;;;23.10;7.97;;;;;;;;;;5020813;28;20061;-72
2022/05/17 02:30:29;;;;;;;15.02;7.18;;;;;;;;;;5020855;28;20041;-72
2022/05/17 02:32:54;;;;;;;18.55;6.82;;;;;;;;;;5017790;28;20018;-72
2022/05/17 02:35:19;;;;;;;15.43;6.65;;;;;;;;;;5021310;28;20484;-72
2022/05/17 02:37:44;;;;;;;20.15;7.50;;;;;;;;;;5020782;28;20049;-73
2022/05/17 02:40:10;;;;;;;18.57;7.53;;;;;;;;;;5022017;28;20029;-72
2022/05/17 02:42:35;;;;;;;19.38;6.97;;;;;;;;;;5016318;28;20278;-72
2022/05/17 02:45:00;;;;;;;16.20;6.88;;;;;;;;;;5020210;28;20682;-72
2022/05/17 02:47:26;;;;;;;12.00;6.82;;;;;;;;;;5017510;28;20022;-73
2022/05/17 02:49:51;;;;;;;20.57;7.30;;;;;;;;;;5015139;28;20034;-72
2022/05/17 02:52:16;;;;;;;18.05;7.20;;;;;;;;;;5021364;28;20369;-72
2022/05/17 02:54:41;;;;;;;14.52;7.93;;;;;;;;;;5016981;28;20469;-72
2022/05/17 02:57:07;;;;;;;17.13;6.80;;;;;;;;;;5013745;28;20443;-72
2022/05/17 02:59:32;;;;;;;16.75;6.60;;;;;;;;;;5016887;28;20029;-72
2022/05/17 03:01:57;;;;;;;27.15;9.38;;;;;;;;;;5017949;28;20026;-72
2022/05/17 03:04:22;;;;;;;16.67;6.70;;;;;;;;;;5018993;28;20117;-72
2022/05/17 03:06:47;;;;;;;18.47;8.40;;;;;;;;;;5019595;28;20029;-72
2022/05/17 03:09:13;;;;;;;18.57;7.57;;;;;;;;;;5019142;28;20377;-72
2022/05/17 03:11:42;;;;;;;16.75;7.15;;;;;;;;;;5019621;28;20345;-72
2022/05/17 03:14:07;;;;;;;14.10;6.95;;;;;;;;;;5021717;28;20018;-72
2022/05/17 03:16:32;;;;;;;13.43;6.78;;;;;;;;;;5017772;28;20878;-73
2022/05/17 03:18:58;;;;;;;18.50;7.50;;;;;;;;;;5017376;28;20033;-73
2022/05/17 03:21:24;;;;;;;14.80;7.22;;;;;;;;;;5020382;28;20468;-72
2022/05/17 03:23:49;;;;;;;16.15;6.72;;;;;;;;;;5020511;28;20068;-72
2022/05/17 03:26:14;;;;;;;23.60;7.63;;;;;;;;;;5019739;28;20116;-72
2022/05/17 03:28:39;;;;;;;13.93;6.88;;;;;;;;;;5016224;28;20014;-72
2022/05/17 03:31:08;;;;;;;16.10;7.07;;;;;;;;;;5017869;28;20017;-72
2022/05/17 03:33:34;;;;;;;14.88;7.00;;;;;;;;;;5020492;28;20070;-72
2022/05/17 03:35:59;;;;;;;17.00;7.70;;;;;;;;;;5019641;28;20458;-73
2022/05/17 03:38:24;;;;;;;13.10;7.78;;;;;;;;;;5018182;28;20044;-72
2022/05/17 03:40:50;;;;;;;18.60;8.37;;;;;;;;;;5018207;28;20045;-72
2022/05/17 03:43:16;;;;;;;16.40;7.95;;;;;;;;;;5016257;28;20357;-72
2022/05/17 03:45:41;;;;;;;14.77;7.50;;;;;;;;;;5016827;28;20424;-72
2022/05/17 03:48:06;;;;;;;13.25;7.45;;;;;;;;;;5019117;28;20097;-73
2022/05/17 03:50:31;;;;;;;17.15;7.63;;;;;;;;;;5019210;28;20029;-72
2022/05/17 03:52:56;;;;;;;20.87;7.90;;;;;;;;;;5017861;28;20120;-72
2022/05/17 03:55:21;;;;;;;25.50;8.50;;;;;;;;;;5022589;28;20063;-72
2022/05/17 03:57:47;;;;;;;16.30;7.82;;;;;;;;;;5018000;28;20266;-73
2022/05/17 04:00:12;;;;;;;15.68;7.43;;;;;;;;;;5019951;28;20041;-73
2022/05/17 04:02:37;;;;;;;18.95;8.25;;;;;;;;;;5018052;28;20068;-72
2022/05/17 04:05:03;;;;;;;13.07;7.88;;;;;;;;;;5024301;28;20033;-72
2022/05/17 04:07:28;;;;;;;19.67;7.95;;;;;;;;;;5016764;28;20108;-72
2022/05/17 04:09:53;;;;;;;21.08;9.57;;;;;;;;;;5021715;28;20495;-72
2022/05/17 04:12:19;;;;;;;27.38;9.90;;;;;;;;;;5023852;28;20373;-73
2022/05/17 04:14:44;;;;;;;18.13;8.70;;;;;;;;;;5023320;28;20056;-72
2022/05/17 04:17:09;;;;;;;22.67;8.65;;;;;;;;;;5019004;28;20399;-73
2022/05/17 04:19:35;;;;;;;17.60;8.10;;;;;;;;;;5020887;28;20029;-72
2022/05/17 04:22:01;;;;;;;22.52;9.50;;;;;;;;;;5024234;28;20076;-72
2022/05/17 04:24:26;;;;;;;24.30;8.97;;;;;;;;;;5018842;28;20021;-73
2022/05/17 04:26:52;;;;;;;21.15;8.25;;;;;;;;;;5022779;28;20309;-72
2022/05/17 04:29:17;;;;;;;20.33;8.45;;;;;;;;;;5018316;28;20021;-75
2022/05/17 04:31:43;;;;;;;24.30;8.38;;;;;;;;;;5021068;28;20033;-72
2022/05/17 04:34:08;;;;;;;16.25;8.95;;;;;;;;;;5015615;28;20407;-71
2022/05/17 04:36:33;;;;;;;17.98;8.05;;;;;;;;;;5021125;28;20033;-71
2022/05/17 04:38:59;;;;;;;19.93;8.30;;;;;;;;;;5022965;28;20048;-71
2022/05/17 04:41:24;;;;;;;13.60;8.13;;;;;;;;;;5019495;28;20289;-72
2022/05/17 04:43:49;;;;;;;19.87;9.30;;;;;;;;;;5022631;28;20274;-72
2022/05/17 04:46:14;;;;;;;22.43;10.03;;;;;;;;;;5026622;28;20640;-69
2022/05/17 04:48:39;;;;;;;14.65;8.77;;;;;;;;;;5024724;28;20072;-72
2022/05/17 04:51:09;;;;;;;21.47;9.50;;;;;;;;;;5018947;28;20044;-70
2022/05/17 04:53:35;;;;;;;25.98;9.80;;;;;;;;;;5023853;28;20581;-72
2022/05/17 04:56:00;;;;;;;21.63;8.95;;;;;;;;;;5025307;28;20428;-72
2022/05/17 04:58:25;;;;;;;21.23;9.38;;;;;;;;;;5026724;28;20020;-72
2022/05/17 05:00:51;;;;;;;22.08;10.68;;;;;;;;;;5022552;28;20152;-70
2022/05/17 05:03:16;;;;;;;24.27;11.23;;;;;;;;;;5024501;28;20025;-77
2022/05/17 05:05:41;;;;;;;24.60;11.23;;;;;;;;;;5017385;28;20164;-76
2022/05/17 05:08:06;;;;;;;25.53;12.10;;;;;;;;;;5019734;28;20025;-72
2022/05/17 05:10:32;;;;;;;18.77;9.77;;;;;;;;;;5022306;28;20755;-72
2022/05/17 05:12:57;;;;;;;26.52;11.07;;;;;;;;;;5022940;28;20112;-72
2022/05/17 05:15:23;;;;;;;25.40;10.80;;;;;;;;;;5018277;28;20028;-72
2022/05/17 05:17:48;;;;;;;18.65;10.40;;;;;;;;;;5021852;28;20033;-72
2022/05/17 05:20:15;;;;;;;30.33;10.82;;;;;;;;;;5017756;28;20021;-71
2022/05/17 05:22:40;;;;;;;23.35;11.00;;;;;;;;;;5014011;28;20166;-72
2022/05/17 05:25:05;;;;;;;25.27;10.70;;;;;;;;;;5023783;28;20014;-72
2022/05/17 05:27:35;;;;;;;25.55;12.48;;;;;;;;;;5017427;28;20325;-72
2022/05/17 05:30:00;;;;;;;25.38;11.35;;;;;;;;;;5026543;28;20037;-72
2022/05/17 05:32:25;;;;;;;21.95;12.23;;;;;;;;;;5025677;28;20017;-71
2022/05/17 05:34:51;;;;;;;24.77;12.02;;;;;;;;;;5017804;28;20067;-72
2022/05/17 05:37:16;;;;;;;29.63;12.98;;;;;;;;;;5021014;28;20036;-72
2022/05/17 05:39:41;;;;;;;28.75;15.43;;;;;;;;;;5019371;28;20255;-72
2022/05/17 05:42:06;;;;;;;24.25;13.65;;;;;;;;;;5019544;28;20029;-72
2022/05/17 05:44:32;;;;;;;30.80;14.57;;;;;;;;;;5025640;28;20091;-72
2022/05/17 05:46:58;;;;;;;35.75;14.77;;;;;;;;;;5019062;28;20279;-71
2022/05/17 05:49:23;;;;;;;31.00;13.67;;;;;;;;;;5015697;28;20021;-72
2022/05/17 05:51:48;;;;;;;30.55;14.48;;;;;;;;;;5025032;28;20080;-74
2022/05/17 05:54:13;;;;;;;23.00;12.52;;;;;;;;;;5026982;28;20087;-73
2022/05/17 05:56:38;;;;;;;25.52;12.65;;;;;;;;;;5027601;28;20033;-72
2022/05/17 05:59:04;;;;;;;29.33;11.97;;;;;;;;;;5030293;28;20117;-73
2022/05/17 06:01:29;;;;;;;20.35;12.23;;;;;;;;;;5024474;28;20033;-72
2022/05/17 06:03:54;;;;;;;25.37;11.60;;;;;;;;;;5018838;28;20952;-74
2022/05/17 06:06:19;;;;;;;31.67;11.95;;;;;;;;;;5021898;28;20045;-74
2022/05/17 06:08:44;;;;;;;21.60;11.93;;;;;;;;;;5016338;28;20022;-73
2022/05/17 06:11:10;;;;;;;27.23;11.82;;;;;;;;;;5015556;28;20030;-73
2022/05/17 06:13:35;;;;;;;29.92;12.40;;;;;;;;;;5022048;28;20021;-73
2022/05/17 06:16:00;;;;;;;26.25;11.57;;;;;;;;;;5025953;28;20067;-73
2022/05/17 06:18:25;;;;;;;24.13;11.50;;;;;;;;;;5016215;28;20152;-73
2022/05/17 06:20:52;;;;;;;30.80;11.52;;;;;;;;;;5019857;28;20275;-73
2022/05/17 06:23:17;;;;;;;26.38;11.70;;;;;;;;;;5024727;28;20036;-74
2022/05/17 06:25:43;;;;;;;25.67;11.35;;;;;;;;;;5024447;28;20026;-73
2022/05/17 06:28:08;;;;;;;21.73;11.48;;;;;;;;;;5024834;28;20029;-74
2022/05/17 06:30:33;;;;;;;20.55;12.15;;;;;;;;;;5025195;28;20033;-73
2022/05/17 06:33:00;;;;;;;22.90;11.30;;;;;;;;;;5021901;28;20033;-72
2022/05/17 06:35:26;;;;;;;23.65;11.05;;;;;;;;;;5024120;28;20044;-73
2022/05/17 06:37:52;;;;;;;30.33;12.07;;;;;;;;;;5016258;28;20464;-73
2022/05/17 06:40:17;;;;;;;22.50;11.02;;;;;;;;;;5019359;28;20179;-74
2022/05/17 06:42:42;;;;;;;26.02;11.98;;;;;;;;;;5023282;28;20402;-74
2022/05/17 06:45:08;;;;;;;26.27;11.93;;;;;;;;;;5021765;28;20152;-74
2022/05/17 06:47:33;;;;;;;26.40;12.25;;;;;;;;;;5022855;28;20029;-74
2022/05/17 06:49:58;;;;;;;28.42;11.05;;;;;;;;;;5024328;28;20043;-74
2022/05/17 06:52:26;;;;;;;22.60;11.10;;;;;;;;;;5020575;28;20108;-74
2022/05/17 06:54:51;;;;;;;24.52;11.10;;;;;;;;;;5016802;28;20429;-74
2022/05/17 06:57:17;;;;;;;18.23;10.88;;;;;;;;;;5018877;28;20469;-73
2022/05/17 06:59:43;;;;;;;26.02;10.93;;;;;;;;;;5025087;28;20028;-73
2022/05/17 07:02:08;;;;;;;19.35;9.73;;;;;;;;;;5021471;28;20391;-74
2022/05/17 07:04:34;;;;;;;18.85;10.32;;;;;;;;;;5022120;28;20056;-73
2022/05/17 07:07:00;;;;;;;22.45;10.45;;;;;;;;;;5017331;28;20483;-73
2022/05/17 07:09:25;;;;;;;19.83;10.27;;;;;;;;;;5016683;28;20124;-72
2022/05/17 07:14:38;;;;;;;24.90;11.00;;;;;;;;;;5024177;28;20386;-73
2022/05/17 07:17:04;;;;;;;19.40;10.27;;;;;;;;;;5022284;28;20021;-72
2022/05/17 07:19:31;;;;;;;22.02;10.60;;;;;;;;;;5017935;28;20328;-73
2022/05/17 07:21:56;;;;;;;16.77;10.25;;;;;;;;;;5019960;28;20393;-73
2022/05/17 07:24:21;;;;;;;31.13;11.38;;;;;;;;;;5019744;28;20055;-73
2022/05/17 07:26:46;;;;;;;25.80;10.43;;;;;;;;;;5012396;28;20058;-73
2022/05/17 07:29:12;;;;;;;23.20;10.80;;;;;;;;;;5022724;28;20021;-73
2022/05/17 07:31:37;;;;;;;24.08;9.77;;;;;;;;;;5024259;28;20286;-73
2022/05/17 07:34:03;;;;;;;22.20;10.53;;;;;;;;;;5021573;28;20547;-73
2022/05/17 07:36:28;;;;;;;20.02;9.23;;;;;;;;;;5021945;28;20305;-72
2022/05/17 07:38:54;;;;;;;21.05;9.95;;;;;;;;;;5022373;28;20021;-71
2022/05/17 07:41:19;;;;;;;25.87;10.47;;;;;;;;;;5026591;28;20025;-71
2022/05/17 07:43:44;;;;;;;20.08;9.27;;;;;;;;;;5025603;28;20491;-71
2022/05/17 07:46:09;;;;;;;16.10;8.38;;;;;;;;;;5027003;28;20036;-73
2022/05/17 07:48:35;;;;;;;27.25;9.75;;;;;;;;;;5022447;28;20033;-74
2022/05/17 07:51:00;;;;;;;18.55;8.52;;;;;;;;;;5028191;28;20489;-73
2022/05/17 07:53:26;;;;;;;16.55;8.18;;;;;;;;;;5021711;28;20475;-73
2022/05/17 07:55:51;;;;;;;17.27;8.15;;;;;;;;;;5025658;28;20033;-74
2022/05/17 07:58:17;;;;;;;21.92;9.55;;;;;;;;;;5030850;28;20025;-74
2022/05/17 08:00:42;;;;;;;24.08;9.13;;;;;;;;;;5036549;28;20045;-74
2022/05/17 08:03:09;;;;;;;21.45;8.23;;;;;;;;;;5024981;28;20030;-73
2022/05/17 08:05:34;;;;;;;13.40;7.95;;;;;;;;;;5025981;28;20025;-73
2022/05/17 08:08:00;;;;;;;17.23;7.82;;;;;;;;;;5020874;28;20040;-73
2022/05/17 08:10:25;;;;;;;15.82;7.78;;;;;;;;;;5028825;28;20021;-73
2022/05/17 08:12:51;;;;;;;17.30;8.00;;;;;;;;;;5024397;28;20258;-74
2022/05/17 08:15:16;;;;;;;18.15;7.53;;;;;;;;;;5018434;28;20310;-74
2022/05/17 08:17:41;;;;;;;21.58;9.02;;;;;;;;;;5021480;28;20075;-74
2022/05/17 08:20:09;;;;;;;19.90;8.40;;;;;;;;;;5023043;28;20037;-73
2022/05/17 08:22:36;;;;;;;28.23;8.52;;;;;;;;;;5021583;28;20025;-74
2022/05/17 08:27:45;;;;;;;17.83;8.73;;;;;;;;;;5017461;28;20071;-73
2022/05/17 08:30:15;;;;;;;23.48;8.70;;;;;;;;;;5020045;28;20116;-72
2022/05/17 08:35:39;;;;;;;18.02;8.38;;;;;;;;;;5020819;28;20541;-73
2022/05/17 08:38:04;;;;;;;15.40;7.07;;;;;;;;;;5018606;28;20025;-73
2022/05/17 08:40:31;;;;;;;14.35;6.90;;;;;;;;;;5022158;28;20029;-68
2022/05/17 08:43:06;;;;;;;19.35;6.85;;;;;;;;;;5020715;28;20037;-73
2022/05/17 08:45:34;;;;;;;19.17;7.32;;;;;;;;;;5027146;28;20652;-73
2022/05/17 08:47:59;;;;;;;16.38;7.28;;;;;;;;;;5020604;28;20030;-73
2022/05/17 08:50:26;;;;;;;17.80;7.05;;;;;;;;;;5010311;28;20029;-73
2022/05/17 08:52:53;;;;;;;20.60;7.55;;;;;;;;;;5014342;28;20040;-72
2022/05/17 08:55:27;;;;;;;12.13;5.97;;;;;;;;;;5019324;28;20017;-74
2022/05/17 08:57:54;;;;;;;15.35;5.15;;;;;;;;;;5019141;28;20025;-73
2022/05/17 09:00:38;;;;;;;15.32;7.13;;;;;;;;;;5028291;28;20018;-74
2022/05/17 09:03:16;;;;;;;21.63;6.93;;;;;;;;;;5025842;28;20018;-74
2022/05/17 09:05:47;;;;;;;17.52;6.80;;;;;;;;;;5020350;28;20045;-73
2022/05/17 09:08:24;;;;;;;19.92;8.50;;;;;;;;;;5025649;28;20025;-73
2022/05/17 09:10:52;;;;;;;17.70;6.95;;;;;;;;;;5018554;28;20022;-74
2022/05/17 09:13:36;;;;;;;22.63;8.38;;;;;;;;;;5025732;28;20053;-75
2022/05/17 09:16:01;;;;;;;20.13;8.32;;;;;;;;;;5019952;28;20584;-74
2022/05/17 09:18:29;;;;;;;22.80;8.07;;;;;;;;;;5020611;28;20037;-73
2022/05/17 09:20:54;;;;;;;24.77;9.63;;;;;;;;;;5023779;28;20026;-73
2022/05/17 09:23:20;;;;;;;29.93;10.40;;;;;;;;;;5023569;28;20036;-73
2022/05/17 09:25:51;;;;;;;21.47;10.40;;;;;;;;;;5017260;28;20633;-74
2022/05/17 09:28:20;;;;;;;26.30;10.32;;;;;;;;;;5013555;28;20725;-74
2022/05/17 09:30:46;;;;;;;23.20;11.43;;;;;;;;;;5016603;28;20033;-73
2022/05/17 09:33:15;;;;;;;24.85;12.95;;;;;;;;;;5022083;28;20025;-73
2022/05/17 09:35:53;;;;;;;26.02;12.82;;;;;;;;;;5017510;28;20473;-74
2022/05/17 09:38:18;;;;;;;26.33;11.93;;;;;;;;;;5021160;28;20483;-74
2022/05/17 09:40:45;;;;;;;37.30;12.18;;;;;;;;;;5027233;28;20037;-75
2022/05/17 09:43:12;;;;;;;22.98;10.95;;;;;;;;;;5022867;28;20070;-75
2022/05/17 09:46:03;;;;;;;25.52;11.63;;;;;;;;;;5020975;28;20559;-74
2022/05/17 09:48:28;;;;;;;25.15;11.15;;;;;;;;;;5020115;28;20026;-74
2022/05/17 09:53:45;;;;;;;23.27;9.70;;;;;;;;;;5015470;28;20087;-73
2022/05/17 09:56:11;;;;;;;20.08;10.68;;;;;;;;;;5017694;28;20135;-72
2022/05/17 09:58:38;;;;;;;26.95;11.85;;;;;;;;;;5025588;28;20059;-74
2022/05/17 10:01:09;;;;;;;22.50;9.55;;;;;;;;;;5010793;28;20144;-73
2022/05/17 10:03:36;;;;;;;19.23;9.32;;;;;;;;;;5024016;28;20052;-76
2022/05/17 10:06:04;;;;;;;24.90;8.35;;;;;;;;;;5024839;28;20029;-75
2022/05/17 10:08:29;;;;;;;14.38;6.75;;;;;;;;;;5019475;28;20026;-73
2022/05/17 10:11:13;;;;;;;19.20;7.33;;;;;;;;;;5018903;28;20021;-72
2022/05/17 10:13:49;;;;;;;19.13;9.88;;;;;;;;;;5019653;28;20024;-73
2022/05/17 10:16:25;;;;;;;19.20;10.90;;;;;;;;;;5026645;28;20499;-74
2022/05/17 10:18:53;;;;;;;25.90;12.60;;;;;;;;;;5020733;28;20037;-72
2022/05/17 10:21:24;;;;;;;22.20;12.00;;;;;;;;;;5018176;28;20067;-72
2022/05/17 10:23:50;;;;;;;19.48;11.07;;;;;;;;;;5017437;28;20392;-75
2022/05/17 10:26:17;;;;;;;30.48;10.88;;;;;;;;;;5024106;28;20025;-73
2022/05/17 10:29:01;;;;;;;18.17;11.48;;;;;;;;;;5016501;28;20022;-71
2022/05/17 10:31:32;;;;;;;18.35;10.93;;;;;;;;;;5020520;28;20040;-72
2022/05/17 10:34:06;;;;;;;16.58;10.38;;;;;;;;;;5019157;28;20029;-73
2022/05/17 10:36:45;;;;;;;18.80;9.27;;;;;;;;;;5020490;28;20032;-73
2022/05/17 10:39:29;;;;;;;12.00;6.88;;;;;;;;;;5022934;28;20056;-73
2022/05/17 10:41:55;;;;;;;13.93;6.22;;;;;;;;;;5023696;28;20250;-77
2022/05/17 10:44:22;;;;;;;16.05;7.82;;;;;;;;;;5021023;28;20392;-72
2022/05/17 10:46:52;;;;;;;15.10;6.93;;;;;;;;;;5023614;28;20029;-74
2022/05/17 10:49:31;;;;;;;13.45;7.80;;;;;;;;;;5023647;28;20024;-72
2022/05/17 10:51:56;;;;;;;16.80;9.25;;;;;;;;;;5016538;28;20480;-73
2022/05/17 10:54:31;;;;;;;18.98;7.18;;;;;;;;;;5024047;28;20056;-75
2022/05/17 10:56:56;;;;;;;12.95;6.97;;;;;;;;;;5021823;28;20511;-75
2022/05/17 10:59:40;;;;;;;19.67;9.25;;;;;;;;;;5024233;28;20547;-73
2022/05/17 11:02:05;;;;;;;;;;;;;;;;;;5018898;28;20021;-74
2022/05/17 11:04:57;;;;;;;14.23;7.93;;;;;;;;;;5019661;28;19982;-75
2022/05/17 11:07:43;;;;;;;16.10;9.40;;;;;;;;;;5022589;28;20494;-74
2022/05/17 11:10:16;;;;;;;15.23;7.53;;;;;;;;;;5005843;28;20033;-73
2022/05/17 11:12:46;;;;;;;16.08;9.07;;;;;;;;;;5018553;28;20017;-73
2022/05/17 11:15:15;;;;;;;14.60;10.13;;;;;;;;;;5022231;28;20036;-72
2022/05/17 11:17:50;;;;;;;12.75;9.10;;;;;;;;;;5020998;28;20052;-72
2022/05/17 11:20:25;;;;;;;22.73;8.85;;;;;;;;;;5020340;28;20037;-75
2022/05/17 11:23:01;;;;;;;17.90;9.52;;;;;;;;;;5023343;28;20029;-72
2022/05/17 11:25:26;;;;;;;18.17;8.07;;;;;;;;;;5016795;28;20021;-73
2022/05/17 11:28:11;;;;;;;21.17;8.07;;;;;;;;;;5023848;28;20315;-73
2022/05/17 11:30:52;;;;;;;16.67;8.05;;;;;;;;;;5012107;28;20025;-73
2022/05/17 11:33:23;;;;;;;13.23;7.75;;;;;;;;;;5018136;28;20025;-73
2022/05/17 11:35:54;;;;;;;12.23;6.80;;;;;;;;;;5021877;28;20033;-73
2022/05/17 11:38:31;;;;;;;19.17;7.70;;;;;;;;;;5015131;28;20029;-74
2022/05/17 11:40:58;;;;;;;16.75;6.78;;;;;;;;;;5020711;28;20029;-74
2022/05/17 11:43:41;;;;;;;12.45;5.68;;;;;;;;;;5016236;28;20542;-73
2022/05/17 11:46:27;;;;;;;11.75;5.25;;;;;;;;;;5021214;28;20052;-76
2022/05/17 11:48:54;;;;;;;15.77;5.50;;;;;;;;;;5025610;28;20026;-74
2022/05/17 11:51:21;;;;;;;9.38;4.85;;;;;;;;;;5017024;28;20021;-73
2022/05/17 11:53:48;;;;;;;10.13;4.97;;;;;;;;;;5020851;28;20329;-74
2022/05/17 11:56:25;;;;;;;11.80;4.60;;;;;;;;;;5022061;28;20108;-75
2022/05/17 11:59:13;;;;;;;12.60;4.85;;;;;;;;;;5028457;28;20037;-71
2022/05/17 12:01:38;;;;;;;11.23;5.32;;;;;;;;;;5001093;28;20045;-73
2022/05/17 12:04:06;;;;;;;12.68;6.53;;;;;;;;;;5019804;28;20022;-73
2022/05/17 12:06:32;;;;;;;11.32;5.10;;;;;;;;;;5016483;28;20037;-74
2022/05/17 12:08:57;;;;;;;12.63;5.82;;;;;;;;;;5011107;28;20057;-73
2022/05/17 12:11:35;;;;;;;11.40;5.47;;;;;;;;;;5022440;28;20109;-73
2022/05/17 12:14:13;;;;;;;9.35;5.13;;;;;;;;;;5023301;28;20022;-73
2022/05/17 12:16:44;;;;;;;10.95;5.95;;;;;;;;;;5020082;28;20516;-73
2022/05/17 12:19:17;;;;;;;12.27;5.65;;;;;;;;;;5006039;28;20033;-76
2022/05/17 12:21:42;;;;;;;;;;;;;;;;;;5011289;28;20029;-71
2022/05/17 12:24:17;;;;;;;10.52;6.05;;;;;;;;;;5021961;28;19963;-70
2022/05/17 12:26:50;;;;;;;12.02;6.43;;;;;;;;;;5022271;28;20026;-76
2022/05/17 12:32:01;;;;;;;7.75;5.38;;;;;;;;;;5026836;28;20071;-73
2022/05/17 12:34:26;;;;;;;8.25;4.63;;;;;;;;;;5027121;28;20318;-70
2022/05/17 12:37:05;;;;;;;13.68;5.65;;;;;;;;;;5020718;28;20029;-72
2022/05/17 12:45:01;;;;;;;8.95;4.70;;;;;;;;;;5016551;28;20479;-70
2022/05/17 12:47:35;;;;;;;9.32;5.18;;;;;;;;;;5025748;28;20025;-74
2022/05/17 12:50:01;;;;;;;11.75;4.63;;;;;;;;;;5023517;28;20014;-72
2022/05/17 12:52:35;;;;;;;7.78;4.20;;;;;;;;;;5016138;28;20471;-71
2022/05/17 12:55:03;;;;;;;17.88;5.57;;;;;;;;;;5023166;28;20071;-71
2022/05/17 12:57:33;;;;;;;9.35;5.20;;;;;;;;;;5019522;28;20148;-71
2022/05/17 13:00:22;;;;;;;11.70;5.50;;;;;;;;;;5016158;28;20063;-72
2022/05/17 13:02:51;;;;;;;8.95;4.93;;;;;;;;;;5018029;28;20072;-70
2022/05/17 13:05:39;;;;;;;9.25;5.35;;;;;;;;;;5023100;28;20376;-71
2022/05/17 13:08:25;;;;;;;8.55;4.85;;;;;;;;;;5022361;28;20472;-71
2022/05/17 13:10:58;;;;;;;10.77;5.38;;;;;;;;;;5022150;28;20042;-71
2022/05/17 13:13:23;;;;;;;;;;;;;;;;;;5020697;28;20095;-70
2022/05/17 13:15:58;;;;;;;14.45;5.25;;;;;;;;;;5021142;28;20015;-72
2022/05/17 13:18:29;;;;;;;9.68;5.40;;;;;;;;;;5022037;28;20503;-74
2022/05/17 13:20:54;;;;;;;12.90;5.75;;;;;;;;;;5023927;28;20028;-76
2022/05/17 13:23:22;;;;;;;12.87;5.50;;;;;;;;;;5025661;28;20117;-72
2022/05/17 13:25:48;;;;;;;11.32;5.65;;;;;;;;;;5020941;28;20601;-73
2022/05/17 13:28:22;;;;;;;10.43;4.40;;;;;;;;;;5024521;28;20036;-70
2022/05/17 13:30:49;;;;;;;10.43;4.72;;;;;;;;;;5013857;28;20014;-74
2022/05/17 13:33:26;;;;;;;11.25;5.55;;;;;;;;;;5020433;28;20021;-72
2022/05/17 13:36:03;;;;;;;13.68;5.75;;;;;;;;;;5018057;28;20053;-73
2022/05/17 13:38:30;;;;;;;11.00;5.35;;;;;;;;;;5020338;28;20033;-72
2022/05/17 13:40:56;;;;;;;12.95;6.28;;;;;;;;;;5023325;28;20033;-78
2022/05/17 13:43:40;;;;;;;13.90;5.75;;;;;;;;;;5015228;28;20496;-73
2022/05/17 13:46:17;;;;;;;12.32;4.82;;;;;;;;;;5024250;28;20025;-72
2022/05/17 13:48:48;;;;;;;10.82;5.90;;;;;;;;;;5021977;28;20033;-71
2022/05/17 13:51:36;;;;;;;8.60;5.65;;;;;;;;;;5021477;28;20025;-71
2022/05/17 13:54:13;;;;;;;9.73;5.20;;;;;;;;;;5014291;28;20033;-69
2022/05/17 13:56:39;;;;;;;14.77;5.72;;;;;;;;;;5016668;28;20061;-70
2022/05/17 13:59:05;;;;;;;10.07;5.38;;;;;;;;;;5015919;28;20032;-72
2022/05/17 14:01:35;;;;;;;7.43;4.93;;;;;;;;;;5022694;28;20017;-70
2022/05/17 14:04:03;;;;;;;11.45;6.18;;;;;;;;;;5018256;28;20037;-73
2022/05/17 14:06:39;;;;;;;11.88;5.28;;;;;;;;;;5026147;28;20022;-70
2022/05/17 14:11:54;;;;;;;14.65;6.15;;;;;;;;;;5019343;28;20040;-70
2022/05/17 14:14:20;;;;;;;19.38;7.05;;;;;;;;;;5024140;28;20019;-71
2022/05/17 14:16:50;;;;;;;16.08;5.25;;;;;;;;;;5017936;28;20032;-69
2022/05/17 14:19:17;;;;;;;11.52;6.03;;;;;;;;;;5022655;28;20028;-70
2022/05/17 14:21:43;;;;;;;10.25;4.90;;;;;;;;;;5028642;28;20056;-70
2022/05/17 14:24:09;;;;;;;15.35;5.88;;;;;;;;;;5022833;28;20472;-71
2022/05/17 14:26:35;;;;;;;13.15;5.25;;;;;;;;;;5018319;28;20026;-70
2022/05/17 14:29:00;;;;;;;11.85;4.53;;;;;;;;;;5018880;28;20029;-71
2022/05/17 14:31:27;;;;;;;11.17;4.70;;;;;;;;;;5023942;28;20032;-70
2022/05/17 14:33:53;;;;;;;14.85;5.32;;;;;;;;;;5022901;28;20155;-71
2022/05/17 14:36:20;;;;;;;8.90;5.45;;;;;;;;;;5018837;28;20104;-70
2022/05/17 14:38:45;;;;;;;12.50;5.70;;;;;;;;;;5013651;28;20507;-72
2022/05/17 14:41:13;;;;;;;12.02;4.85;;;;;;;;;;5016208;28;20036;-72
2022/05/17 14:43:38;;;;;;;13.75;5.65;;;;;;;;;;5017642;28;20168;-74
2022/05/17 14:46:03;;;;;;;6.57;3.58;;;;;;;;;;5024015;28;20112;-73
2022/05/17 14:48:29;;;;;;;9.23;4.53;;;;;;;;;;5020615;28;20022;-74
2022/05/17 14:50:54;;;;;;;14.55;4.90;;;;;;;;;;5023207;28;20241;-74
2022/05/17 14:53:19;;;;;;;8.90;3.57;;;;;;;;;;5019150;28;20029;-75
2022/05/17 14:55:45;;;;;;;11.77;4.65;;;;;;;;;;5016472;28;20029;-75